Terminal Aerodrome Forecast
Issued by NWS Raleigh/Durham, NC

Home | Current Version | Previous Version | Text Only | Print | Product List | Glossary On
Versions: 1 2 3 4 5 6 7 8 9 10 11 12 13
000
FTUS42 KRAH 181734 AAA
TAFFAY
TAF AMD
KFAY 181734Z 1818/1918 24006KT P6SM SCT200
     FM190800 VRB02KT 3SM BR SCT080
     FM190900 VRB02KT 2SM BR SCT015
     FM191100 VRB03KT 1SM BR BKN008
     FM191300 VRB03KT 5SM BR SCT015
     FM191400 VRB03KT P6SM SCT140=

USA.gov is the U.S. government's official web portal to all federal, state and local government web resources and services.